sensor_id;sensor_type;location;lat;lon;timestamp;temperature;humidity
25138;DHT22;13112;50.986;4.354;2023-02-17T00:01:25;12.40;99.90
25138;DHT22;13112;50.986;4.354;2023-02-17T00:03:51;12.40;99.90
25138;DHT22;13112;50.986;4.354;2023-02-17T00:06:20;12.40;99.90
25138;DHT22;13112;50.986;4.354;2023-02-17T00:08:47;12.50;99.90
25138;DHT22;13112;50.986;4.354;2023-02-17T00:11:13;12.50;99.90
25138;DHT22;13112;50.986;4.354;2023-02-17T00:13:39;12.50;99.90
25138;DHT22;13112;50.986;4.354;2023-02-17T00:16:09;12.40;99.90
25138;DHT22;13112;50.986;4.354;2023-02-17T00:18:35;12.40;99.90
25138;DHT22;13112;50.986;4.354;2023-02-17T00:21:16;12.20;99.90
25138;DHT22;13112;50.986;4.354;2023-02-17T00:23:43;12.20;99.90
25138;DHT22;13112;50.986;4.354;2023-02-17T00:26:09;12.10;99.90
25138;DHT22;13112;50.986;4.354;2023-02-17T00:28:35;12.00;99.90
25138;DHT22;13112;50.986;4.354;2023-02-17T00:31:09;12.00;99.90
25138;DHT22;13112;50.986;4.354;2023-02-17T00:33:35;12.10;99.90
25138;DHT22;13112;50.986;4.354;2023-02-17T00:36:06;12.20;99.90
25138;DHT22;13112;50.986;4.354;2023-02-17T00:38:33;12.20;99.90
25138;DHT22;13112;50.986;4.354;2023-02-17T00:40:59;12.20;99.90
25138;DHT22;13112;50.986;4.354;2023-02-17T00:43:24;12.20;99.90
25138;DHT22;13112;50.986;4.354;2023-02-17T00:45:50;12.10;99.90
25138;DHT22;13112;50.986;4.354;2023-02-17T00:48:15;12.00;99.90
25138;DHT22;13112;50.986;4.354;2023-02-17T00:50:41;12.00;99.90
25138;DHT22;13112;50.986;4.354;2023-02-17T00:53:07;12.00;99.90
25138;DHT22;13112;50.986;4.354;2023-02-17T00:55:32;12.00;99.90
25138;DHT22;13112;50.986;4.354;2023-02-17T00:57:58;12.00;99.90
25138;DHT22;13112;50.986;4.354;2023-02-17T01:00:24;12.00;99.90
25138;DHT22;13112;50.986;4.354;2023-02-17T01:02:49;11.90;99.90
25138;DHT22;13112;50.986;4.354;2023-02-17T01:05:15;11.80;99.90
25138;DHT22;13112;50.986;4.354;2023-02-17T01:07:41;11.90;99.90
25138;DHT22;13112;50.986;4.354;2023-02-17T01:10:07;11.90;99.90
25138;DHT22;13112;50.986;4.354;2023-02-17T01:12:33;11.90;99.90
25138;DHT22;13112;50.986;4.354;2023-02-17T01:15:00;11.90;99.90
25138;DHT22;13112;50.986;4.354;2023-02-17T01:17:26;11.80;99.90
25138;DHT22;13112;50.986;4.354;2023-02-17T01:19:51;11.70;99.90
25138;DHT22;13112;50.986;4.354;2023-02-17T01:22:17;11.70;99.90
25138;DHT22;13112;50.986;4.354;2023-02-17T01:24:43;11.60;99.90
25138;DHT22;13112;50.986;4.354;2023-02-17T01:27:08;11.80;99.90
25138;DHT22;13112;50.986;4.354;2023-02-17T01:29:34;11.90;99.90
25138;DHT22;13112;50.986;4.354;2023-02-17T01:32:00;11.90;99.90
25138;DHT22;13112;50.986;4.354;2023-02-17T01:34:25;11.60;99.90
25138;DHT22;13112;50.986;4.354;2023-02-17T01:36:51;11.70;99.90
25138;DHT22;13112;50.986;4.354;2023-02-17T01:39:17;11.80;99.90
25138;DHT22;13112;50.986;4.354;2023-02-17T01:41:43;12.00;99.90
25138;DHT22;13112;50.986;4.354;2023-02-17T01:44:19;11.90;99.90
25138;DHT22;13112;50.986;4.354;2023-02-17T01:46:47;12.10;99.90
25138;DHT22;13112;50.986;4.354;2023-02-17T01:49:18;11.90;99.90
25138;DHT22;13112;50.986;4.354;2023-02-17T01:51:51;12.00;99.90
25138;DHT22;13112;50.986;4.354;2023-02-17T01:54:23;11.80;99.90
25138;DHT22;13112;50.986;4.354;2023-02-17T01:56:51;11.70;99.90
25138;DHT22;13112;50.986;4.354;2023-02-17T01:59:19;11.60;99.90
25138;DHT22;13112;50.986;4.354;2023-02-17T02:01:47;11.60;99.90
25138;DHT22;13112;50.986;4.354;2023-02-17T02:04:14;11.50;99.90
25138;DHT22;13112;50.986;4.354;2023-02-17T02:06:42;11.70;99.90
25138;DHT22;13112;50.986;4.354;2023-02-17T02:09:21;11.70;99.90
25138;DHT22;13112;50.986;4.354;2023-02-17T02:11:50;11.60;99.90
25138;DHT22;13112;50.986;4.354;2023-02-17T02:14:17;11.60;99.90
25138;DHT22;13112;50.986;4.354;2023-02-17T02:33:56;11.40;99.90
25138;DHT22;13112;50.986;4.354;2023-02-17T02:37:19;11.30;99.90
25138;DHT22;13112;50.986;4.354;2023-02-17T02:39:31;11.40;99.90
25138;DHT22;13112;50.986;4.354;2023-02-17T02:42:02;11.40;99.90
25138;DHT22;13112;50.986;4.354;2023-02-17T02:44:30;11.30;99.90
25138;DHT22;13112;50.986;4.354;2023-02-17T02:47:01;11.40;99.90
25138;DHT22;13112;50.986;4.354;2023-02-17T02:49:28;11.50;99.90
25138;DHT22;13112;50.986;4.354;2023-02-17T03:00:25;11.30;99.90
25138;DHT22;13112;50.986;4.354;2023-02-17T03:03:04;11.20;99.90
25138;DHT22;13112;50.986;4.354;2023-02-17T03:05:51;11.20;99.90
25138;DHT22;13112;50.986;4.354;2023-02-17T03:08:36;11.20;99.90
25138;DHT22;13112;50.986;4.354;2023-02-17T03:11:03;11.20;99.90
25138;DHT22;13112;50.986;4.354;2023-02-17T03:13:32;11.30;99.90
25138;DHT22;13112;50.986;4.354;2023-02-17T03:15:58;11.40;99.90
25138;DHT22;13112;50.986;4.354;2023-02-17T03:18:24;11.30;99.90
25138;DHT22;13112;50.986;4.354;2023-02-17T03:20:56;11.20;99.90
25138;DHT22;13112;50.986;4.354;2023-02-17T03:23:24;11.20;99.90
25138;DHT22;13112;50.986;4.354;2023-02-17T03:25:50;11.40;99.90
25138;DHT22;13112;50.986;4.354;2023-02-17T03:28:16;11.40;99.90
25138;DHT22;13112;50.986;4.354;2023-02-17T03:30:43;11.50;99.90
25138;DHT22;13112;50.986;4.354;2023-02-17T03:33:08;11.40;99.90
25138;DHT22;13112;50.986;4.354;2023-02-17T03:35:34;11.50;99.90
25138;DHT22;13112;50.986;4.354;2023-02-17T03:38:00;11.50;99.90
25138;DHT22;13112;50.986;4.354;2023-02-17T03:40:25;11.40;99.90
25138;DHT22;13112;50.986;4.354;2023-02-17T03:42:51;11.50;99.90
25138;DHT22;13112;50.986;4.354;2023-02-17T03:45:17;11.40;99.90
25138;DHT22;13112;50.986;4.354;2023-02-17T03:47:42;11.50;99.90
25138;DHT22;13112;50.986;4.354;2023-02-17T03:50:08;11.70;99.90
25138;DHT22;13112;50.986;4.354;2023-02-17T03:52:34;11.60;99.90
25138;DHT22;13112;50.986;4.354;2023-02-17T03:55:00;11.40;99.90
25138;DHT22;13112;50.986;4.354;2023-02-17T03:57:25;11.30;99.90
25138;DHT22;13112;50.986;4.354;2023-02-17T03:59:51;11.20;99.90
25138;DHT22;13112;50.986;4.354;2023-02-17T04:02:17;11.30;99.90
25138;DHT22;13112;50.986;4.354;2023-02-17T04:04:42;11.20;99.90
25138;DHT22;13112;50.986;4.354;2023-02-17T04:07:08;11.20;99.90
25138;DHT22;13112;50.986;4.354;2023-02-17T04:09:33;11.30;99.90
25138;DHT22;13112;50.986;4.354;2023-02-17T04:11:59;11.20;99.90
25138;DHT22;13112;50.986;4.354;2023-02-17T04:14:25;11.20;99.90
25138;DHT22;13112;50.986;4.354;2023-02-17T04:16:51;11.20;99.90
25138;DHT22;13112;50.986;4.354;2023-02-17T04:19:17;11.30;99.90
25138;DHT22;13112;50.986;4.354;2023-02-17T04:21:43;11.20;99.90
25138;DHT22;13112;50.986;4.354;2023-02-17T04:24:08;11.10;99.90
25138;DHT22;13112;50.986;4.354;2023-02-17T04:26:34;11.20;99.90
25138;DHT22;13112;50.986;4.354;2023-02-17T04:29:03;11.10;99.90
25138;DHT22;13112;50.986;4.354;2023-02-17T04:31:28;11.10;99.90
25138;DHT22;13112;50.986;4.354;2023-02-17T04:33:54;11.10;99.90
25138;DHT22;13112;50.986;4.354;2023-02-17T04:36:20;11.10;99.90
25138;DHT22;13112;50.986;4.354;2023-02-17T04:38:46;11.20;99.90
25138;DHT22;13112;50.986;4.354;2023-02-17T04:41:11;11.10;99.90
25138;DHT22;13112;50.986;4.354;2023-02-17T04:43:37;11.00;99.90
25138;DHT22;13112;50.986;4.354;2023-02-17T04:46:03;11.10;99.90
25138;DHT22;13112;50.986;4.354;2023-02-17T04:48:28;11.20;99.90
25138;DHT22;13112;50.986;4.354;2023-02-17T04:50:54;11.30;99.90
25138;DHT22;13112;50.986;4.354;2023-02-17T04:53:20;11.30;99.90
25138;DHT22;13112;50.986;4.354;2023-02-17T04:55:50;11.30;99.90
25138;DHT22;13112;50.986;4.354;2023-02-17T04:58:16;11.20;99.90
25138;DHT22;13112;50.986;4.354;2023-02-17T05:00:42;11.30;99.90
25138;DHT22;13112;50.986;4.354;2023-02-17T05:03:07;11.30;99.90
25138;DHT22;13112;50.986;4.354;2023-02-17T05:05:33;11.20;99.90
25138;DHT22;13112;50.986;4.354;2023-02-17T05:07:59;11.20;99.90
25138;DHT22;13112;50.986;4.354;2023-02-17T05:10:25;11.30;99.90
25138;DHT22;13112;50.986;4.354;2023-02-17T05:12:51;11.40;99.90
25138;DHT22;13112;50.986;4.354;2023-02-17T05:15:17;11.30;99.90
25138;DHT22;13112;50.986;4.354;2023-02-17T05:17:43;11.20;99.90
25138;DHT22;13112;50.986;4.354;2023-02-17T05:20:10;11.20;99.90
25138;DHT22;13112;50.986;4.354;2023-02-17T05:22:36;11.30;99.90
25138;DHT22;13112;50.986;4.354;2023-02-17T05:25:02;11.40;99.90
25138;DHT22;13112;50.986;4.354;2023-02-17T05:27:28;11.40;99.90
25138;DHT22;13112;50.986;4.354;2023-02-17T05:29:53;11.40;99.90
25138;DHT22;13112;50.986;4.354;2023-02-17T05:32:19;11.20;99.90
25138;DHT22;13112;50.986;4.354;2023-02-17T05:34:46;11.10;99.90
25138;DHT22;13112;50.986;4.354;2023-02-17T05:37:12;11.00;99.90
25138;DHT22;13112;50.986;4.354;2023-02-17T05:39:37;10.90;99.90
25138;DHT22;13112;50.986;4.354;2023-02-17T05:42:03;10.80;99.90
25138;DHT22;13112;50.986;4.354;2023-02-17T05:44:29;10.90;99.90
25138;DHT22;13112;50.986;4.354;2023-02-17T05:46:55;10.90;99.90
25138;DHT22;13112;50.986;4.354;2023-02-17T05:49:20;10.90;99.90
25138;DHT22;13112;50.986;4.354;2023-02-17T05:51:46;11.00;99.90
25138;DHT22;13112;50.986;4.354;2023-02-17T05:54:12;10.80;99.90
25138;DHT22;13112;50.986;4.354;2023-02-17T05:56:37;10.90;99.90
25138;DHT22;13112;50.986;4.354;2023-02-17T05:59:03;10.80;99.90
25138;DHT22;13112;50.986;4.354;2023-02-17T06:01:29;10.80;99.90
25138;DHT22;13112;50.986;4.354;2023-02-17T06:03:55;10.80;99.90
25138;DHT22;13112;50.986;4.354;2023-02-17T06:06:20;11.00;99.90
25138;DHT22;13112;50.986;4.354;2023-02-17T06:08:46;11.00;99.90
25138;DHT22;13112;50.986;4.354;2023-02-17T06:11:12;11.00;99.90
25138;DHT22;13112;50.986;4.354;2023-02-17T06:13:37;11.00;99.90
25138;DHT22;13112;50.986;4.354;2023-02-17T06:16:03;10.90;99.90
25138;DHT22;13112;50.986;4.354;2023-02-17T06:18:29;10.90;99.90
25138;DHT22;13112;50.986;4.354;2023-02-17T06:20:56;11.00;99.90
25138;DHT22;13112;50.986;4.354;2023-02-17T06:23:25;10.90;99.90
25138;DHT22;13112;50.986;4.354;2023-02-17T06:25:52;10.90;99.90
25138;DHT22;13112;50.986;4.354;2023-02-17T06:28:18;11.00;99.90
25138;DHT22;13112;50.986;4.354;2023-02-17T06:30:44;11.00;99.90
25138;DHT22;13112;50.986;4.354;2023-02-17T06:33:09;10.90;99.90
25138;DHT22;13112;50.986;4.354;2023-02-17T06:35:35;11.00;99.90
25138;DHT22;13112;50.986;4.354;2023-02-17T06:38:01;11.10;99.90
25138;DHT22;13112;50.986;4.354;2023-02-17T06:40:26;11.00;99.90
25138;DHT22;13112;50.986;4.354;2023-02-17T06:42:52;10.90;99.90
25138;DHT22;13112;50.986;4.354;2023-02-17T06:45:18;11.10;99.90
25138;DHT22;13112;50.986;4.354;2023-02-17T06:47:43;11.10;99.90
25138;DHT22;13112;50.986;4.354;2023-02-17T06:50:10;11.20;99.90
25138;DHT22;13112;50.986;4.354;2023-02-17T06:52:36;10.90;99.90
25138;DHT22;13112;50.986;4.354;2023-02-17T06:55:01;10.90;99.90
25138;DHT22;13112;50.986;4.354;2023-02-17T06:57:27;11.00;99.90
25138;DHT22;13112;50.986;4.354;2023-02-17T06:59:53;11.10;99.90
25138;DHT22;13112;50.986;4.354;2023-02-17T07:02:19;11.20;99.90
25138;DHT22;13112;50.986;4.354;2023-02-17T07:04:45;11.10;99.90
25138;DHT22;13112;50.986;4.354;2023-02-17T07:07:11;11.10;99.90
25138;DHT22;13112;50.986;4.354;2023-02-17T07:09:36;11.30;99.90
25138;DHT22;13112;50.986;4.354;2023-02-17T07:12:03;11.30;99.90
25138;DHT22;13112;50.986;4.354;2023-02-17T07:14:31;11.30;99.90
25138;DHT22;13112;50.986;4.354;2023-02-17T07:16:57;11.10;99.90
25138;DHT22;13112;50.986;4.354;2023-02-17T07:19:23;11.10;99.90
25138;DHT22;13112;50.986;4.354;2023-02-17T07:21:49;11.20;99.90
25138;DHT22;13112;50.986;4.354;2023-02-17T07:24:14;11.30;99.90
25138;DHT22;13112;50.986;4.354;2023-02-17T07:26:40;11.30;99.90
25138;DHT22;13112;50.986;4.354;2023-02-17T07:29:06;11.40;99.90
25138;DHT22;13112;50.986;4.354;2023-02-17T07:31:33;11.40;99.90
25138;DHT22;13112;50.986;4.354;2023-02-17T07:34:00;11.40;99.90
25138;DHT22;13112;50.986;4.354;2023-02-17T07:36:26;11.50;99.90
25138;DHT22;13112;50.986;4.354;2023-02-17T07:38:52;11.50;99.90
25138;DHT22;13112;50.986;4.354;2023-02-17T07:41:20;11.60;99.90
25138;DHT22;13112;50.986;4.354;2023-02-17T07:43:47;11.60;99.90
25138;DHT22;13112;50.986;4.354;2023-02-17T07:46:13;11.70;99.90
25138;DHT22;13112;50.986;4.354;2023-02-17T07:48:39;11.60;99.90
25138;DHT22;13112;50.986;4.354;2023-02-17T07:51:07;11.60;99.90
25138;DHT22;13112;50.986;4.354;2023-02-17T07:53:34;11.60;99.90
25138;DHT22;13112;50.986;4.354;2023-02-17T07:56:07;11.70;99.90
25138;DHT22;13112;50.986;4.354;2023-02-17T07:58:34;11.50;99.90
25138;DHT22;13112;50.986;4.354;2023-02-17T08:01:08;11.50;99.90
25138;DHT22;13112;50.986;4.354;2023-02-17T08:03:36;11.60;99.90
25138;DHT22;13112;50.986;4.354;2023-02-17T08:06:02;11.50;99.90
25138;DHT22;13112;50.986;4.354;2023-02-17T08:08:28;11.50;99.90
25138;DHT22;13112;50.986;4.354;2023-02-17T08:11:15;11.50;99.90
25138;DHT22;13112;50.986;4.354;2023-02-17T08:13:59;11.50;99.90
25138;DHT22;13112;50.986;4.354;2023-02-17T08:16:25;11.60;99.90
25138;DHT22;13112;50.986;4.354;2023-02-17T08:18:52;11.70;99.90
25138;DHT22;13112;50.986;4.354;2023-02-17T08:21:18;11.90;99.90
25138;DHT22;13112;50.986;4.354;2023-02-17T08:23:43;11.80;99.90
25138;DHT22;13112;50.986;4.354;2023-02-17T08:26:09;11.80;99.90
25138;DHT22;13112;50.986;4.354;2023-02-17T08:28:35;11.80;99.90
25138;DHT22;13112;50.986;4.354;2023-02-17T08:31:00;11.90;99.90
25138;DHT22;13112;50.986;4.354;2023-02-17T08:33:27;12.10;99.90
25138;DHT22;13112;50.986;4.354;2023-02-17T08:35:52;12.20;99.90
25138;DHT22;13112;50.986;4.354;2023-02-17T08:38:18;12.10;99.90
25138;DHT22;13112;50.986;4.354;2023-02-17T08:40:44;12.20;99.90
25138;DHT22;13112;50.986;4.354;2023-02-17T08:43:10;12.20;99.90
25138;DHT22;13112;50.986;4.354;2023-02-17T08:45:35;12.30;99.90
25138;DHT22;13112;50.986;4.354;2023-02-17T08:48:03;12.30;99.90
25138;DHT22;13112;50.986;4.354;2023-02-17T08:50:29;12.50;99.90
25138;DHT22;13112;50.986;4.354;2023-02-17T08:52:54;12.50;99.90
25138;DHT22;13112;50.986;4.354;2023-02-17T08:55:20;12.40;99.90
25138;DHT22;13112;50.986;4.354;2023-02-17T08:57:48;12.70;99.90
25138;DHT22;13112;50.986;4.354;2023-02-17T09:00:15;12.80;99.90
25138;DHT22;13112;50.986;4.354;2023-02-17T09:02:41;13.00;99.90
25138;DHT22;13112;50.986;4.354;2023-02-17T09:05:10;13.10;99.90
25138;DHT22;13112;50.986;4.354;2023-02-17T09:07:37;13.20;99.90
25138;DHT22;13112;50.986;4.354;2023-02-17T09:10:05;13.20;99.90
25138;DHT22;13112;50.986;4.354;2023-02-17T09:12:31;13.50;99.90
25138;DHT22;13112;50.986;4.354;2023-02-17T09:14:57;13.70;99.90
25138;DHT22;13112;50.986;4.354;2023-02-17T09:17:22;13.90;99.90
25138;DHT22;13112;50.986;4.354;2023-02-17T09:19:48;14.20;99.90
25138;DHT22;13112;50.986;4.354;2023-02-17T09:22:14;14.30;99.90
25138;DHT22;13112;50.986;4.354;2023-02-17T09:24:42;14.30;99.90
25138;DHT22;13112;50.986;4.354;2023-02-17T09:27:08;14.30;99.90
25138;DHT22;13112;50.986;4.354;2023-02-17T09:29:36;14.00;99.90
25138;DHT22;13112;50.986;4.354;2023-02-17T09:32:08;14.50;99.90
25138;DHT22;13112;50.986;4.354;2023-02-17T09:34:38;15.10;99.90
25138;DHT22;13112;50.986;4.354;2023-02-17T09:37:09;14.70;99.90
25138;DHT22;13112;50.986;4.354;2023-02-17T09:39:35;14.50;99.90
25138;DHT22;13112;50.986;4.354;2023-02-17T09:42:01;14.40;99.90
25138;DHT22;13112;50.986;4.354;2023-02-17T09:44:43;14.40;99.90
25138;DHT22;13112;50.986;4.354;2023-02-17T09:47:22;15.00;99.90
25138;DHT22;13112;50.986;4.354;2023-02-17T09:49:57;15.00;99.90
25138;DHT22;13112;50.986;4.354;2023-02-17T09:52:54;14.90;99.90
25138;DHT22;13112;50.986;4.354;2023-02-17T09:55:30;15.10;99.90
25138;DHT22;13112;50.986;4.354;2023-02-17T09:58:20;14.80;99.90
25138;DHT22;13112;50.986;4.354;2023-02-17T10:00:50;14.60;99.90
25138;DHT22;13112;50.986;4.354;2023-02-17T10:08:44;14.20;99.90
25138;DHT22;13112;50.986;4.354;2023-02-17T10:13:56;14.30;99.90
25138;DHT22;13112;50.986;4.354;2023-02-17T10:16:30;14.40;99.90
25138;DHT22;13112;50.986;4.354;2023-02-17T10:19:09;14.60;99.90
25138;DHT22;13112;50.986;4.354;2023-02-17T10:22:01;14.80;99.90
25138;DHT22;13112;50.986;4.354;2023-02-17T10:24:30;15.00;99.90
25138;DHT22;13112;50.986;4.354;2023-02-17T10:32:23;15.40;99.90
25138;DHT22;13112;50.986;4.354;2023-02-17T10:40:24;15.90;99.90
25138;DHT22;13112;50.986;4.354;2023-02-17T10:42:54;15.80;99.90
25138;DHT22;13112;50.986;4.354;2023-02-17T10:50:27;16.00;99.90
25138;DHT22;13112;50.986;4.354;2023-02-17T10:52:53;16.20;99.90
25138;DHT22;13112;50.986;4.354;2023-02-17T10:55:36;16.20;99.90
25138;DHT22;13112;50.986;4.354;2023-02-17T10:58:14;16.20;99.90
25138;DHT22;13112;50.986;4.354;2023-02-17T11:00:46;16.30;99.90
25138;DHT22;13112;50.986;4.354;2023-02-17T11:03:20;16.30;99.90
25138;DHT22;13112;50.986;4.354;2023-02-17T11:05:53;16.40;99.90
25138;DHT22;13112;50.986;4.354;2023-02-17T11:08:36;16.50;99.90
25138;DHT22;13112;50.986;4.354;2023-02-17T11:11:22;16.60;99.90
25138;DHT22;13112;50.986;4.354;2023-02-17T11:13:57;16.80;99.90
25138;DHT22;13112;50.986;4.354;2023-02-17T11:16:37;16.50;99.90
25138;DHT22;13112;50.986;4.354;2023-02-17T11:19:34;16.40;99.90
25138;DHT22;13112;50.986;4.354;2023-02-17T11:22:03;16.50;99.90
25138;DHT22;13112;50.986;4.354;2023-02-17T11:24:31;16.70;99.90
25138;DHT22;13112;50.986;4.354;2023-02-17T11:27:04;16.80;99.90
25138;DHT22;13112;50.986;4.354;2023-02-17T11:29:30;17.00;99.90
25138;DHT22;13112;50.986;4.354;2023-02-17T11:32:10;17.10;99.90
25138;DHT22;13112;50.986;4.354;2023-02-17T11:34:42;17.20;99.90
25138;DHT22;13112;50.986;4.354;2023-02-17T11:39:39;16.70;99.90
25138;DHT22;13112;50.986;4.354;2023-02-17T11:42:30;16.30;99.90
25138;DHT22;13112;50.986;4.354;2023-02-17T11:44:59;16.80;99.90
25138;DHT22;13112;50.986;4.354;2023-02-17T11:50:21;16.30;99.90
25138;DHT22;13112;50.986;4.354;2023-02-17T11:55:45;16.70;99.90
25138;DHT22;13112;50.986;4.354;2023-02-17T11:58:50;16.30;99.90
25138;DHT22;13112;50.986;4.354;2023-02-17T12:04:04;16.10;99.90
25138;DHT22;13112;50.986;4.354;2023-02-17T12:06:50;16.50;99.90
25138;DHT22;13112;50.986;4.354;2023-02-17T12:09:28;16.20;99.90
25138;DHT22;13112;50.986;4.354;2023-02-17T12:17:49;16.00;99.90
25138;DHT22;13112;50.986;4.354;2023-02-17T12:20:40;15.90;99.90
25138;DHT22;13112;50.986;4.354;2023-02-17T12:29:04;15.70;99.90
25138;DHT22;13112;50.986;4.354;2023-02-17T12:36:38;14.80;99.90
25138;DHT22;13112;50.986;4.354;2023-02-17T12:39:34;14.60;99.90
25138;DHT22;13112;50.986;4.354;2023-02-17T12:42:40;14.50;99.90
25138;DHT22;13112;50.986;4.354;2023-02-17T12:45:16;14.40;99.90
25138;DHT22;13112;50.986;4.354;2023-02-17T12:53:46;14.20;99.90
25138;DHT22;13112;50.986;4.354;2023-02-17T12:59:10;14.30;99.90
25138;DHT22;13112;50.986;4.354;2023-02-17T13:01:41;14.00;99.90
25138;DHT22;13112;50.986;4.354;2023-02-17T13:04:10;14.00;99.90
25138;DHT22;13112;50.986;4.354;2023-02-17T13:06:42;14.10;99.90
25138;DHT22;13112;50.986;4.354;2023-02-17T13:09:29;14.50;99.90
25138;DHT22;13112;50.986;4.354;2023-02-17T13:14:51;14.70;99.90
25138;DHT22;13112;50.986;4.354;2023-02-17T13:17:37;14.60;99.90
25138;DHT22;13112;50.986;4.354;2023-02-17T13:22:31;13.90;99.90
25138;DHT22;13112;50.986;4.354;2023-02-17T13:24:57;13.90;99.90
25138;DHT22;13112;50.986;4.354;2023-02-17T13:27:33;13.90;99.90
25138;DHT22;13112;50.986;4.354;2023-02-17T13:33:38;13.60;99.90
25138;DHT22;13112;50.986;4.354;2023-02-17T13:35:51;13.80;99.90
25138;DHT22;13112;50.986;4.354;2023-02-17T13:38:31;13.80;99.90
25138;DHT22;13112;50.986;4.354;2023-02-17T13:41:02;14.00;99.90
25138;DHT22;13112;50.986;4.354;2023-02-17T13:43:30;14.20;99.90
25138;DHT22;13112;50.986;4.354;2023-02-17T13:46:04;14.30;99.90
25138;DHT22;13112;50.986;4.354;2023-02-17T13:48:34;14.20;99.90
25138;DHT22;13112;50.986;4.354;2023-02-17T13:51:01;14.20;99.90
25138;DHT22;13112;50.986;4.354;2023-02-17T13:53:36;14.10;99.90
25138;DHT22;13112;50.986;4.354;2023-02-17T13:56:05;14.00;99.90
25138;DHT22;13112;50.986;4.354;2023-02-17T13:58:34;14.00;99.90
25138;DHT22;13112;50.986;4.354;2023-02-17T14:01:01;13.70;99.90
25138;DHT22;13112;50.986;4.354;2023-02-17T14:03:33;13.80;99.90
25138;DHT22;13112;50.986;4.354;2023-02-17T14:06:00;13.90;99.90
25138;DHT22;13112;50.986;4.354;2023-02-17T14:08:38;13.90;99.90
25138;DHT22;13112;50.986;4.354;2023-02-17T14:11:09;14.00;99.90
25138;DHT22;13112;50.986;4.354;2023-02-17T14:13:38;14.10;99.90
25138;DHT22;13112;50.986;4.354;2023-02-17T14:16:05;14.20;99.90
25138;DHT22;13112;50.986;4.354;2023-02-17T14:18:39;14.10;99.90
25138;DHT22;13112;50.986;4.354;2023-02-17T14:21:22;14.00;99.90
25138;DHT22;13112;50.986;4.354;2023-02-17T14:23:50;14.00;99.90
25138;DHT22;13112;50.986;4.354;2023-02-17T14:26:34;13.80;99.90
25138;DHT22;13112;50.986;4.354;2023-02-17T14:29:03;13.80;99.90
25138;DHT22;13112;50.986;4.354;2023-02-17T14:31:39;13.80;99.90
25138;DHT22;13112;50.986;4.354;2023-02-17T14:34:06;13.90;99.90
25138;DHT22;13112;50.986;4.354;2023-02-17T14:36:37;13.80;99.90
25138;DHT22;13112;50.986;4.354;2023-02-17T14:39:06;13.80;99.90
25138;DHT22;13112;50.986;4.354;2023-02-17T14:41:32;13.80;99.90
25138;DHT22;13112;50.986;4.354;2023-02-17T14:43:58;13.80;99.90
25138;DHT22;13112;50.986;4.354;2023-02-17T14:46:26;13.80;99.90
25138;DHT22;13112;50.986;4.354;2023-02-17T14:48:52;13.70;99.90
25138;DHT22;13112;50.986;4.354;2023-02-17T14:51:21;13.70;99.90
25138;DHT22;13112;50.986;4.354;2023-02-17T14:53:50;13.60;99.90
25138;DHT22;13112;50.986;4.354;2023-02-17T14:56:26;13.50;99.90
25138;DHT22;13112;50.986;4.354;2023-02-17T14:58:53;13.40;99.90
25138;DHT22;13112;50.986;4.354;2023-02-17T15:01:20;13.40;99.90
25138;DHT22;13112;50.986;4.354;2023-02-17T15:03:47;13.30;99.90
25138;DHT22;13112;50.986;4.354;2023-02-17T15:08:41;13.40;99.90
25138;DHT22;13112;50.986;4.354;2023-02-17T15:11:14;13.40;99.90
25138;DHT22;13112;50.986;4.354;2023-02-17T15:13:42;13.40;99.90
25138;DHT22;13112;50.986;4.354;2023-02-17T15:16:08;13.30;99.90
25138;DHT22;13112;50.986;4.354;2023-02-17T15:18:34;13.30;99.90
25138;DHT22;13112;50.986;4.354;2023-02-17T15:20:59;13.30;99.90
25138;DHT22;13112;50.986;4.354;2023-02-17T15:23:29;13.30;99.90
25138;DHT22;13112;50.986;4.354;2023-02-17T15:25:56;13.50;99.90
25138;DHT22;13112;50.986;4.354;2023-02-17T15:28:21;13.60;99.90
25138;DHT22;13112;50.986;4.354;2023-02-17T15:30:53;13.60;99.90
25138;DHT22;13112;50.986;4.354;2023-02-17T15:33:20;13.60;99.90
25138;DHT22;13112;50.986;4.354;2023-02-17T15:35:50;13.70;99.90
25138;DHT22;13112;50.986;4.354;2023-02-17T15:38:18;13.70;99.90
25138;DHT22;13112;50.986;4.354;2023-02-17T15:40:43;13.80;99.90
25138;DHT22;13112;50.986;4.354;2023-02-17T15:43:16;14.00;99.90
25138;DHT22;13112;50.986;4.354;2023-02-17T15:45:44;14.00;99.90
25138;DHT22;13112;50.986;4.354;2023-02-17T15:48:25;14.00;99.90
25138;DHT22;13112;50.986;4.354;2023-02-17T15:50:52;13.90;99.90
25138;DHT22;13112;50.986;4.354;2023-02-17T15:53:18;13.70;99.90
25138;DHT22;13112;50.986;4.354;2023-02-17T15:55:45;13.40;99.90
25138;DHT22;13112;50.986;4.354;2023-02-17T15:58:20;13.10;99.90
25138;DHT22;13112;50.986;4.354;2023-02-17T16:00:46;12.80;99.90
25138;DHT22;13112;50.986;4.354;2023-02-17T16:03:14;12.70;99.90
25138;DHT22;13112;50.986;4.354;2023-02-17T16:05:41;12.60;99.90
25138;DHT22;13112;50.986;4.354;2023-02-17T16:08:07;12.40;99.90
25138;DHT22;13112;50.986;4.354;2023-02-17T16:10:33;12.40;99.90
25138;DHT22;13112;50.986;4.354;2023-02-17T16:13:00;12.50;99.90
25138;DHT22;13112;50.986;4.354;2023-02-17T16:15:27;12.50;99.90
25138;DHT22;13112;50.986;4.354;2023-02-17T16:17:55;12.40;99.90
25138;DHT22;13112;50.986;4.354;2023-02-17T16:20:25;12.40;99.90
25138;DHT22;13112;50.986;4.354;2023-02-17T16:22:51;12.20;99.90
25138;DHT22;13112;50.986;4.354;2023-02-17T16:25:17;12.20;99.90
25138;DHT22;13112;50.986;4.354;2023-02-17T16:27:45;12.20;99.90
25138;DHT22;13112;50.986;4.354;2023-02-17T16:30:32;12.10;99.90
25138;DHT22;13112;50.986;4.354;2023-02-17T16:32:58;12.00;99.90
25138;DHT22;13112;50.986;4.354;2023-02-17T16:35:26;12.20;99.90
25138;DHT22;13112;50.986;4.354;2023-02-17T16:40:23;12.20;99.90
25138;DHT22;13112;50.986;4.354;2023-02-17T16:42:48;12.20;99.90
25138;DHT22;13112;50.986;4.354;2023-02-17T16:45:20;12.30;99.90
25138;DHT22;13112;50.986;4.354;2023-02-17T16:47:49;12.30;99.90
25138;DHT22;13112;50.986;4.354;2023-02-17T16:52:50;12.30;99.90
25138;DHT22;13112;50.986;4.354;2023-02-17T16:55:19;12.30;99.90
25138;DHT22;13112;50.986;4.354;2023-02-17T16:57:45;12.30;99.90
25138;DHT22;13112;50.986;4.354;2023-02-17T17:00:16;12.30;99.90
25138;DHT22;13112;50.986;4.354;2023-02-17T17:02:42;12.40;99.90
25138;DHT22;13112;50.986;4.354;2023-02-17T17:05:10;12.60;99.90
25138;DHT22;13112;50.986;4.354;2023-02-17T17:07:37;12.70;99.90
25138;DHT22;13112;50.986;4.354;2023-02-17T17:10:06;12.60;99.90
25138;DHT22;13112;50.986;4.354;2023-02-17T17:12:32;12.50;99.90
25138;DHT22;13112;50.986;4.354;2023-02-17T17:14:58;12.30;99.90
25138;DHT22;13112;50.986;4.354;2023-02-17T17:17:24;12.20;99.90
25138;DHT22;13112;50.986;4.354;2023-02-17T17:19:50;12.10;99.90
25138;DHT22;13112;50.986;4.354;2023-02-17T17:22:15;12.20;99.90
25138;DHT22;13112;50.986;4.354;2023-02-17T17:24:41;12.10;99.90